Time;durP1;ratioP1;P1;durP2;ratioP2;P2;SDS_P1;SDS_P2;PMS_P1;PMS_P2;Temp;Humidity;BMP_temperature;BMP_pressure;BME280_temperature;BME280_humidity;BME280_pressure;Samples;Min_cycle;Max_cycle;Signal;HPM_P1;HPM_P2
2021/11/19 00:00:25;;;;;;;1.23;1.10;;;9.80;99.90;;;;;;4352441;32;20555;-73
2021/11/19 00:02:50;;;;;;;1.00;0.80;;;9.80;99.90;;;;;;4354513;32;20088;-73
2021/11/19 00:05:16;;;;;;;0.80;0.80;;;9.80;99.90;;;;;;4352960;32;20083;-73
2021/11/19 00:07:41;;;;;;;6.07;0.80;;;9.80;99.90;;;;;;4353592;32;20083;-73
2021/11/19 00:10:08;;;;;;;0.80;0.80;;;9.80;99.90;;;;;;4351151;32;20094;-73
2021/11/19 00:12:34;;;;;;;0.82;0.52;;;9.80;99.90;;;;;;4353570;32;20087;-73
2021/11/19 00:15:00;;;;;;;14.40;2.70;;;9.80;99.90;;;;;;4352391;32;20514;-73
2021/11/19 00:17:27;;;;;;;1.98;1.48;;;9.90;99.90;;;;;;4356330;32;20063;-73
2021/11/19 00:19:52;;;;;;;1.33;1.23;;;9.80;99.90;;;;;;4351715;32;20131;-72
2021/11/19 00:22:19;;;;;;;0.50;0.50;;;9.90;99.90;;;;;;4352541;32;20063;-72
2021/11/19 00:24:45;;;;;;;0.45;0.45;;;9.90;99.90;;;;;;4352623;32;20481;-73
2021/11/19 00:27:14;;;;;;;3.72;0.85;;;9.90;99.90;;;;;;4354365;32;20088;-73
2021/11/19 00:29:41;;;;;;;0.85;0.85;;;9.90;99.90;;;;;;4350780;32;20323;-74
2021/11/19 00:32:08;;;;;;;0.70;0.70;;;9.90;99.90;;;;;;4355042;32;20230;-72
2021/11/19 00:34:33;;;;;;;0.50;0.50;;;9.90;99.90;;;;;;4353918;32;20079;-73
2021/11/19 00:37:00;;;;;;;0.88;0.65;;;9.90;99.90;;;;;;4351872;32;20511;-73
2021/11/19 00:39:26;;;;;;;1.65;0.98;;;10.00;99.90;;;;;;4351085;32;20063;-73
2021/11/19 00:41:53;;;;;;;0.52;0.52;;;10.00;99.90;;;;;;4351121;32;20655;-73
2021/11/19 00:44:19;;;;;;;4.72;1.62;;;10.00;99.90;;;;;;4353486;32;20082;-73
2021/11/19 00:46:47;;;;;;;0.60;0.60;;;10.00;99.90;;;;;;4354578;32;20163;-73
2021/11/19 00:49:14;;;;;;;0.50;0.50;;;10.00;99.90;;;;;;4355169;32;20189;-73
2021/11/19 00:51:43;;;;;;;1.70;1.17;;;10.00;99.90;;;;;;4355403;32;20075;-73
2021/11/19 00:54:09;;;;;;;0.60;0.60;;;10.00;99.90;;;;;;4353782;32;20080;-73
2021/11/19 00:56:42;;;;;;;0.75;0.70;;;10.00;99.90;;;;;;4354602;32;20110;-73
2021/11/19 00:59:09;;;;;;;0.93;0.82;;;10.00;99.90;;;;;;4352459;32;20589;-72
2021/11/19 01:01:40;;;;;;;0.68;0.65;;;10.00;99.90;;;;;;4355203;32;20087;-73
2021/11/19 01:04:07;;;;;;;1.83;1.02;;;10.00;99.90;;;;;;4358547;32;20074;-73
2021/11/19 01:06:33;;;;;;;0.62;0.62;;;10.10;99.90;;;;;;4359554;32;20078;-73
2021/11/19 01:09:00;;;;;;;2.28;1.77;;;10.10;99.90;;;;;;4356588;32;20513;-73
2021/11/19 01:11:27;;;;;;;1.42;1.00;;;10.10;99.90;;;;;;4358512;32;20072;-73
2021/11/19 01:13:57;;;;;;;1.30;0.80;;;10.10;99.90;;;;;;4356986;32;20099;-73
2021/11/19 01:16:28;;;;;;;0.77;0.77;;;10.10;99.90;;;;;;4359409;32;20058;-73
2021/11/19 01:18:58;;;;;;;0.50;0.50;;;10.10;99.90;;;;;;4355328;32;20128;-72
2021/11/19 01:21:29;;;;;;;5.62;0.77;;;10.10;99.90;;;;;;4358028;32;20067;-73
2021/11/19 01:23:55;;;;;;;1.00;1.00;;;10.10;99.90;;;;;;4359681;32;20079;-72
2021/11/19 01:26:31;;;;;;;9.40;1.00;;;10.10;99.90;;;;;;4355623;32;20137;-72
2021/11/19 01:29:01;;;;;;;0.50;0.50;;;10.10;99.90;;;;;;4358413;32;20505;-72
2021/11/19 01:31:34;;;;;;;0.70;0.70;;;10.10;99.90;;;;;;4355813;32;20079;-72
2021/11/19 01:34:00;;;;;;;0.62;0.57;;;10.20;99.90;;;;;;4360033;32;20079;-73
2021/11/19 01:36:26;;;;;;;0.75;0.75;;;10.20;99.90;;;;;;4363929;32;20075;-73
2021/11/19 01:38:52;;;;;;;1.27;0.80;;;10.20;99.90;;;;;;4355000;32;20075;-73
2021/11/19 01:41:32;;;;;;;1.12;0.90;;;10.20;99.90;;;;;;4357535;32;20123;-73
2021/11/19 01:43:59;;;;;;;2.15;0.68;;;10.20;99.90;;;;;;4356688;32;20131;-73
2021/11/19 01:46:27;;;;;;;1.35;1.00;;;10.20;99.90;;;;;;4359317;32;20418;-73
2021/11/19 01:48:54;;;;;;;0.77;0.77;;;10.30;99.90;;;;;;4358137;32;20067;-73
2021/11/19 01:51:43;;;;;;;3.12;1.60;;;10.30;99.90;;;;;;4357005;32;20591;-73
2021/11/19 01:54:14;;;;;;;0.50;0.50;;;10.30;99.90;;;;;;4344128;32;20158;-73
2021/11/19 01:57:00;;;;;;;0.70;0.70;;;10.30;99.90;;;;;;4358492;32;20075;-73
2021/11/19 01:59:34;;;;;;;0.68;0.68;;;10.30;99.90;;;;;;4359231;32;20529;-73
2021/11/19 02:02:07;;;;;;;1.42;0.98;;;10.30;99.90;;;;;;4355108;32;20087;-73
2021/11/19 02:04:38;;;;;;;0.73;0.73;;;10.40;99.90;;;;;;4359266;32;20098;-73
2021/11/19 02:07:06;;;;;;;;;;;10.40;99.90;;;;;;4356812;32;20063;-74
2021/11/19 02:09:54;;;;;;;1.45;1.20;;;10.40;99.90;;;;;;4351762;32;20345;-73
2021/11/19 02:12:29;;;;;;;2.80;1.00;;;10.40;99.90;;;;;;4348534;32;20052;-73
2021/11/19 02:15:05;;;;;;;0.50;0.50;;;10.40;99.90;;;;;;4357693;32;20103;-73
2021/11/19 02:17:31;;;;;;;0.80;0.75;;;10.40;99.90;;;;;;4355367;32;20510;-73
2021/11/19 02:20:04;;;;;;;6.45;0.98;;;10.50;99.90;;;;;;4350283;32;20118;-73
2021/11/19 02:22:35;;;;;;;2.55;0.75;;;10.50;99.90;;;;;;4355045;32;20533;-73
2021/11/19 02:25:09;;;;;;;22.65;1.05;;;10.50;99.90;;;;;;4351557;32;20167;-73
2021/11/19 02:27:39;;;;;;;0.65;0.65;;;10.50;99.90;;;;;;4348582;32;20106;-73
2021/11/19 02:30:11;;;;;;;0.65;0.65;;;10.50;99.90;;;;;;4347254;32;20080;-73
2021/11/19 02:32:41;;;;;;;0.93;0.90;;;10.50;99.90;;;;;;4354708;32;20164;-72
2021/11/19 02:35:09;;;;;;;;;;;10.60;99.90;;;;;;4357745;32;20107;-73
2021/11/19 02:37:39;;;;;;;1.30;1.20;;;10.50;99.90;;;;;;4351040;32;19974;-73
2021/11/19 02:40:11;;;;;;;1.10;0.85;;;10.60;99.90;;;;;;4353269;32;20070;-73
2021/11/19 02:42:43;;;;;;;8.60;1.15;;;10.60;99.90;;;;;;4355734;32;20100;-73
2021/11/19 02:45:16;;;;;;;0.40;0.40;;;10.60;99.90;;;;;;4349551;32;20192;-73
2021/11/19 02:47:42;;;;;;;1.02;0.65;;;10.60;99.90;;;;;;4353779;32;20091;-73
2021/11/19 02:50:11;;;;;;;0.60;0.60;;;10.60;99.90;;;;;;4354208;32;20443;-73
2021/11/19 02:52:41;;;;;;;0.85;0.85;;;10.60;99.90;;;;;;4357775;32;20090;-73
2021/11/19 02:55:12;;;;;;;0.70;0.70;;;10.60;99.90;;;;;;4356392;32;20536;-72
2021/11/19 02:57:39;;;;;;;1.23;0.70;;;10.70;99.90;;;;;;4343983;32;20455;-73
2021/11/19 03:00:11;;;;;;;1.15;1.10;;;10.60;99.90;;;;;;4348187;32;20467;-74
2021/11/19 03:02:37;;;;;;;0.50;0.50;;;10.70;99.90;;;;;;4352814;32;20066;-73
2021/11/19 03:05:09;;;;;;;0.70;0.70;;;10.70;99.90;;;;;;4352870;32;20074;-73
2021/11/19 03:07:34;;;;;;;1.95;0.73;;;10.70;99.90;;;;;;4347516;32;20397;-72
2021/11/19 03:10:05;;;;;;;1.00;0.85;;;10.70;99.90;;;;;;4346852;32;20131;-72
2021/11/19 03:12:33;;;;;;;1.40;0.73;;;10.70;99.90;;;;;;4348537;32;20110;-72
2021/11/19 03:15:02;;;;;;;0.50;0.50;;;10.70;99.90;;;;;;4347321;32;20107;-72
2021/11/19 03:17:28;;;;;;;1.15;1.05;;;10.70;99.90;;;;;;4348735;32;20067;-73
2021/11/19 03:19:55;;;;;;;2.00;0.98;;;10.70;99.90;;;;;;4352697;32;20099;-73
2021/11/19 03:22:24;;;;;;;0.85;0.60;;;10.80;99.90;;;;;;4352803;32;20059;-72
2021/11/19 03:24:51;;;;;;;0.65;0.65;;;10.80;99.90;;;;;;4353239;32;20094;-72
2021/11/19 03:27:18;;;;;;;10.68;1.12;;;10.80;99.90;;;;;;4350859;32;20079;-73
2021/11/19 03:29:46;;;;;;;0.88;0.60;;;10.80;99.90;;;;;;4357124;32;20094;-73
2021/11/19 03:32:15;;;;;;;0.60;0.60;;;10.80;99.90;;;;;;4348450;32;20091;-73
2021/11/19 03:34:41;;;;;;;2.33;0.95;;;10.80;99.90;;;;;;4352731;32;20151;-72
2021/11/19 03:37:07;;;;;;;0.90;0.85;;;10.80;99.90;;;;;;4351424;32;20507;-74
2021/11/19 03:39:33;;;;;;;0.75;0.75;;;10.80;99.90;;;;;;4356749;32;20079;-73
2021/11/19 03:42:00;;;;;;;0.62;0.62;;;10.80;99.90;;;;;;4348412;32;20067;-73
2021/11/19 03:44:33;;;;;;;0.65;0.65;;;10.80;99.90;;;;;;4346826;32;20087;-73
2021/11/19 03:47:04;;;;;;;0.82;0.73;;;10.80;99.90;;;;;;4351911;32;20134;-72
2021/11/19 03:49:31;;;;;;;1.85;1.20;;;10.80;99.90;;;;;;4353530;32;20071;-73
2021/11/19 03:52:01;;;;;;;1.15;0.98;;;10.80;99.90;;;;;;4352456;32;20112;-73
2021/11/19 03:54:29;;;;;;;1.00;0.93;;;10.90;99.90;;;;;;4348895;32;20103;-72
2021/11/19 03:56:56;;;;;;;8.68;1.00;;;10.80;99.90;;;;;;4353261;32;20153;-72
2021/11/19 03:59:22;;;;;;;1.58;0.65;;;10.90;99.90;;;;;;4354512;32;20514;-72
2021/11/19 04:01:51;;;;;;;1.10;1.00;;;10.80;99.90;;;;;;4353366;32;20152;-72
2021/11/19 04:04:18;;;;;;;2.60;1.40;;;10.80;99.90;;;;;;4351364;32;20508;-72
2021/11/19 04:06:45;;;;;;;1.10;0.73;;;10.80;99.90;;;;;;4343133;32;20071;-72
2021/11/19 04:09:10;;;;;;;0.70;0.62;;;10.70;99.90;;;;;;4355384;32;20075;-73
2021/11/19 04:11:36;;;;;;;19.30;1.65;;;10.70;99.90;;;;;;4353621;32;20425;-73
2021/11/19 04:14:02;;;;;;;0.62;0.50;;;10.70;99.90;;;;;;4348601;32;20144;-73
2021/11/19 04:16:34;;;;;;;3.83;1.35;;;10.70;99.90;;;;;;4343445;32;20102;-73
2021/11/19 04:19:00;;;;;;;2.17;1.50;;;10.60;99.90;;;;;;4355559;32;20063;-73
2021/11/19 04:21:27;;;;;;;1.02;1.00;;;10.70;99.90;;;;;;4347642;32;20455;-73
2021/11/19 04:23:55;;;;;;;4.40;1.60;;;10.60;99.90;;;;;;4349511;32;20076;-72
2021/11/19 04:26:21;;;;;;;3.87;1.25;;;10.60;99.90;;;;;;4357550;32;20078;-73
2021/11/19 04:28:47;;;;;;;3.30;1.60;;;10.60;99.90;;;;;;4355491;32;20075;-73
2021/11/19 04:31:15;;;;;;;1.85;0.75;;;10.60;99.90;;;;;;4355002;32;20506;-72
2021/11/19 04:33:41;;;;;;;1.58;1.05;;;10.60;99.90;;;;;;4349429;32;135734;-73
2021/11/19 04:36:07;;;;;;;0.82;0.82;;;10.50;99.90;;;;;;4354361;32;20062;-73
2021/11/19 04:38:34;;;;;;;2.85;1.25;;;10.60;99.90;;;;;;4348897;32;20125;-73
2021/11/19 04:40:59;;;;;;;0.90;0.90;;;10.50;99.90;;;;;;4349519;32;20068;-73
2021/11/19 04:43:26;;;;;;;1.30;0.90;;;10.50;99.90;;;;;;4353210;32;20471;-73
2021/11/19 04:45:52;;;;;;;1.25;1.00;;;10.50;99.90;;;;;;4351015;32;20122;-74
2021/11/19 04:48:18;;;;;;;9.32;2.60;;;10.50;99.90;;;;;;4355295;32;20427;-73
2021/11/19 04:50:46;;;;;;;3.55;2.12;;;10.50;99.90;;;;;;4352509;32;20055;-73
2021/11/19 04:53:14;;;;;;;0.73;0.73;;;10.50;99.90;;;;;;4352576;32;20078;-73
2021/11/19 04:55:40;;;;;;;4.90;1.60;;;10.60;99.90;;;;;;4353201;32;20074;-72
2021/11/19 04:58:06;;;;;;;1.30;1.17;;;10.60;99.90;;;;;;4347789;32;20521;-73
2021/11/19 05:00:38;;;;;;;0.95;0.95;;;10.60;99.90;;;;;;4356293;32;20071;-73
2021/11/19 05:03:06;;;;;;;3.62;1.60;;;10.60;99.90;;;;;;4353406;32;20762;-72
2021/11/19 05:05:32;;;;;;;0.57;0.57;;;10.70;99.90;;;;;;4353163;32;20086;-73
2021/11/19 05:07:58;;;;;;;4.75;1.58;;;10.70;99.90;;;;;;4352166;32;20056;-73
2021/11/19 05:10:24;;;;;;;3.03;1.05;;;10.70;99.90;;;;;;4354156;32;20122;-73
2021/11/19 05:12:56;;;;;;;0.60;0.60;;;10.70;99.90;;;;;;4357189;32;20151;-73
2021/11/19 05:15:23;;;;;;;0.60;0.60;;;10.70;99.90;;;;;;4359356;32;20129;-73
2021/11/19 05:17:48;;;;;;;2.50;1.05;;;10.80;99.90;;;;;;4357227;32;20148;-73
2021/11/19 05:20:17;;;;;;;2.12;0.95;;;10.80;99.90;;;;;;4354092;32;20070;-72
2021/11/19 05:22:43;;;;;;;1.10;1.00;;;10.80;99.90;;;;;;4344160;32;20817;-72
2021/11/19 05:25:12;;;;;;;1.65;0.98;;;10.80;99.90;;;;;;4350612;32;20521;-73
2021/11/19 05:27:38;;;;;;;0.55;0.55;;;10.80;99.90;;;;;;4353692;32;20078;-73
2021/11/19 05:30:05;;;;;;;2.05;0.98;;;10.80;99.90;;;;;;4353136;32;20079;-73
2021/11/19 05:32:31;;;;;;;2.70;1.27;;;10.80;99.90;;;;;;4352889;32;20110;-73
2021/11/19 05:34:57;;;;;;;0.75;0.75;;;10.90;99.90;;;;;;4352635;32;20116;-74
2021/11/19 05:37:23;;;;;;;1.37;0.90;;;10.90;99.90;;;;;;4353170;32;20137;-73
2021/11/19 05:39:48;;;;;;;2.12;1.08;;;10.90;99.90;;;;;;4353250;32;20072;-73
2021/11/19 05:42:14;;;;;;;2.80;1.17;;;10.90;99.90;;;;;;4356145;32;20067;-73
2021/11/19 05:44:42;;;;;;;4.47;1.10;;;10.90;99.90;;;;;;4355612;32;20098;-73
2021/11/19 05:47:09;;;;;;;0.90;0.90;;;10.90;99.90;;;;;;4351156;32;20123;-73
2021/11/19 05:49:36;;;;;;;6.28;2.30;;;10.90;99.90;;;;;;4355119;32;20324;-73
2021/11/19 05:52:03;;;;;;;0.57;0.57;;;11.00;99.90;;;;;;4360652;32;20071;-73
2021/11/19 05:54:31;;;;;;;2.65;1.00;;;11.00;99.90;;;;;;4356008;32;20074;-73
2021/11/19 05:56:57;;;;;;;0.95;0.95;;;11.00;99.90;;;;;;4363991;32;20136;-73
2021/11/19 05:59:23;;;;;;;1.20;0.85;;;11.00;99.90;;;;;;4356197;32;20129;-72
2021/11/19 06:01:49;;;;;;;1.87;1.20;;;11.00;99.90;;;;;;4344236;32;20626;-73
2021/11/19 06:04:15;;;;;;;0.90;0.90;;;11.10;99.90;;;;;;4347776;32;20125;-72
2021/11/19 06:06:42;;;;;;;0.82;0.65;;;11.10;99.90;;;;;;4349274;32;20718;-72
2021/11/19 06:09:14;;;;;;;0.55;0.55;;;11.10;99.90;;;;;;4351710;32;20099;-72
2021/11/19 06:11:45;;;;;;;1.02;0.98;;;11.10;99.90;;;;;;4348295;32;20430;-72
2021/11/19 06:14:16;;;;;;;0.80;0.80;;;11.10;99.90;;;;;;4353458;32;20126;-72
2021/11/19 06:16:49;;;;;;;1.25;0.80;;;11.10;99.90;;;;;;4347928;32;20083;-73
2021/11/19 06:19:19;;;;;;;0.50;0.50;;;11.10;99.90;;;;;;4344712;32;20084;-73
2021/11/19 06:21:50;;;;;;;1.45;0.65;;;11.10;99.90;;;;;;4350108;32;20230;-72
2021/11/19 06:24:19;;;;;;;2.08;1.12;;;11.10;99.90;;;;;;4350784;32;20099;-72
2021/11/19 06:26:46;;;;;;;1.75;1.30;;;11.20;99.90;;;;;;4338592;32;20066;-72
2021/11/19 06:29:13;;;;;;;0.82;0.68;;;11.20;99.90;;;;;;4340639;32;20145;-73
2021/11/19 06:31:42;;;;;;;2.95;1.10;;;11.20;99.90;;;;;;4323504;32;20248;-72
2021/11/19 06:34:11;;;;;;;1.12;1.02;;;11.20;99.90;;;;;;4343886;32;20427;-73
2021/11/19 06:36:41;;;;;;;0.43;0.43;;;11.20;99.90;;;;;;4353959;32;20455;-73
2021/11/19 06:39:10;;;;;;;0.70;0.70;;;11.20;99.90;;;;;;4348027;32;20151;-72
2021/11/19 06:41:35;;;;;;;1.12;0.90;;;11.20;99.90;;;;;;4351022;32;20102;-73
2021/11/19 06:44:02;;;;;;;2.95;1.40;;;11.30;99.90;;;;;;4348024;32;20123;-72
2021/11/19 06:46:27;;;;;;;0.60;0.60;;;11.20;99.90;;;;;;4349237;32;20165;-73
2021/11/19 06:48:53;;;;;;;1.10;0.77;;;11.20;99.90;;;;;;4343879;32;20547;-73
2021/11/19 06:51:25;;;;;;;1.37;1.15;;;11.30;99.90;;;;;;4346375;32;20071;-73
2021/11/19 06:53:51;;;;;;;2.25;0.65;;;11.20;99.90;;;;;;4345862;32;20366;-73
2021/11/19 06:56:18;;;;;;;0.57;0.57;;;11.20;99.90;;;;;;4346987;32;20127;-72
2021/11/19 06:58:44;;;;;;;1.23;0.90;;;11.30;99.90;;;;;;4338404;32;20882;-72
2021/11/19 07:01:10;;;;;;;1.12;0.82;;;11.30;99.90;;;;;;4335312;32;20086;-72
2021/11/19 07:03:36;;;;;;;0.88;0.88;;;11.30;99.90;;;;;;4339534;32;20804;-73
2021/11/19 07:06:01;;;;;;;0.68;0.68;;;11.30;99.90;;;;;;4332124;32;20108;-72
2021/11/19 07:08:28;;;;;;;1.23;1.12;;;11.30;99.90;;;;;;4343417;32;20100;-72
2021/11/19 07:10:59;;;;;;;3.40;0.93;;;11.30;99.90;;;;;;4331616;32;20138;-72
2021/11/19 07:13:25;;;;;;;;;;;11.30;99.90;;;;;;4336321;32;20811;-71
2021/11/19 07:15:51;;;;;;;3.03;0.95;;;11.20;99.90;;;;;;4338672;32;19969;-71
2021/11/19 07:18:17;;;;;;;0.55;0.55;;;11.30;99.90;;;;;;4336719;32;20088;-71
2021/11/19 07:20:43;;;;;;;0.60;0.60;;;11.20;99.90;;;;;;4333920;32;20472;-71
2021/11/19 07:23:10;;;;;;;0.68;0.68;;;11.20;99.90;;;;;;4332025;32;20078;-71
2021/11/19 07:25:37;;;;;;;1.75;0.70;;;11.30;99.90;;;;;;4331210;32;20198;-71
2021/11/19 07:28:04;;;;;;;0.70;0.70;;;11.30;99.90;;;;;;4337677;32;20075;-71
2021/11/19 07:30:35;;;;;;;0.50;0.50;;;11.30;99.90;;;;;;4338334;32;20082;-72
2021/11/19 07:33:01;;;;;;;;;;;11.30;99.90;;;;;;4335714;32;20658;-72
2021/11/19 07:35:27;;;;;;;0.50;0.50;;;11.30;99.90;;;;;;4340709;32;19958;-71
2021/11/19 07:37:53;;;;;;;1.12;1.05;;;11.30;99.90;;;;;;4337535;32;20095;-72
2021/11/19 07:40:27;;;;;;;0.93;0.65;;;11.30;99.90;;;;;;4335424;32;20525;-72
2021/11/19 07:42:53;;;;;;;0.70;0.62;;;11.30;99.90;;;;;;4342232;32;20075;-72
2021/11/19 07:45:19;;;;;;;0.65;0.65;;;11.20;99.90;;;;;;4344524;32;20436;-72
2021/11/19 07:47:45;;;;;;;0.55;0.55;;;11.20;99.90;;;;;;4338976;32;20352;-71
2021/11/19 07:50:14;;;;;;;0.50;0.50;;;11.20;99.90;;;;;;4332226;32;20244;-72
2021/11/19 07:52:40;;;;;;;0.95;0.80;;;11.20;99.90;;;;;;4339089;32;20090;-71
2021/11/19 07:55:07;;;;;;;1.48;0.77;;;11.20;99.90;;;;;;4341956;32;22051;-72
2021/11/19 07:57:33;;;;;;;6.65;1.42;;;11.30;99.90;;;;;;4337136;32;20099;-71
2021/11/19 07:59:58;;;;;;;7.82;1.23;;;11.30;99.90;;;;;;4335898;32;20143;-71
2021/11/19 08:02:24;;;;;;;1.27;0.82;;;11.30;99.90;;;;;;4343819;32;20066;-71
2021/11/19 08:04:50;;;;;;;0.52;0.52;;;11.30;99.90;;;;;;4342522;32;20088;-71
2021/11/19 08:07:15;;;;;;;0.50;0.50;;;11.40;99.90;;;;;;4337822;32;20548;-71
2021/11/19 08:09:41;;;;;;;1.95;0.62;;;11.40;99.90;;;;;;4341274;32;20094;-71
2021/11/19 08:12:07;;;;;;;0.60;0.60;;;11.40;99.90;;;;;;4342592;32;20435;-72
2021/11/19 08:14:32;;;;;;;0.50;0.50;;;11.50;99.90;;;;;;4341277;32;20067;-72
2021/11/19 08:17:03;;;;;;;1.00;0.70;;;11.50;99.90;;;;;;4343214;32;20467;-71
2021/11/19 08:19:30;;;;;;;;;;;11.50;99.90;;;;;;4339663;32;20086;-72
2021/11/19 08:21:58;;;;;;;0.93;0.70;;;11.50;99.90;;;;;;4343909;32;19981;-72
2021/11/19 08:24:26;;;;;;;1.33;0.75;;;11.50;99.90;;;;;;4345170;32;20556;-72
2021/11/19 08:26:57;;;;;;;0.55;0.55;;;11.60;99.90;;;;;;4340284;32;20639;-71
2021/11/19 08:29:26;;;;;;;1.80;0.93;;;11.60;99.90;;;;;;4335815;32;20068;-71
2021/11/19 08:31:54;;;;;;;0.55;0.55;;;11.60;99.90;;;;;;4335826;32;20058;-71
2021/11/19 08:34:20;;;;;;;0.85;0.85;;;11.60;99.90;;;;;;4329565;32;20075;-71
2021/11/19 08:36:46;;;;;;;0.60;0.60;;;11.60;99.90;;;;;;4336637;32;20167;-71
2021/11/19 08:39:15;;;;;;;0.50;0.50;;;11.60;99.90;;;;;;4329999;32;20168;-71
2021/11/19 08:41:41;;;;;;;0.57;0.57;;;11.60;99.90;;;;;;4341932;32;20103;-72
2021/11/19 08:44:07;;;;;;;0.47;0.47;;;11.60;99.90;;;;;;4337841;32;20062;-73
2021/11/19 08:46:36;;;;;;;0.40;0.40;;;11.60;99.90;;;;;;4332444;32;20159;-73
2021/11/19 08:49:06;;;;;;;0.88;0.88;;;11.70;99.90;;;;;;4335391;32;20156;-73
2021/11/19 08:51:32;;;;;;;2.47;1.13;;;11.60;99.90;;;;;;4323658;32;20091;-73
2021/11/19 08:54:02;;;;;;;0.40;0.40;;;11.60;99.90;;;;;;4333023;32;21522;-73
2021/11/19 08:56:29;;;;;;;0.60;0.60;;;11.60;99.90;;;;;;4327510;32;20103;-73
2021/11/19 08:58:56;;;;;;;1.02;0.95;;;11.60;99.90;;;;;;4328748;32;21000;-73
2021/11/19 09:01:22;;;;;;;0.60;0.60;;;11.60;99.90;;;;;;4331558;32;20075;-72
2021/11/19 09:03:49;;;;;;;0.50;0.50;;;11.60;99.90;;;;;;4329934;32;20122;-73
2021/11/19 09:06:16;;;;;;;2.78;1.33;;;11.60;99.90;;;;;;4330455;32;21979;-73
2021/11/19 09:08:43;;;;;;;0.40;0.40;;;11.60;99.90;;;;;;4338235;32;20075;-72
2021/11/19 09:11:12;;;;;;;0.95;0.70;;;11.60;99.90;;;;;;4342000;32;20326;-73
2021/11/19 09:13:40;;;;;;;0.90;0.90;;;11.60;99.90;;;;;;4333085;32;20760;-72
2021/11/19 09:16:10;;;;;;;0.73;0.73;;;11.50;99.90;;;;;;4333347;32;20130;-72
2021/11/19 09:18:58;;;;;;;4.75;0.82;;;11.50;99.90;;;;;;4335506;32;20195;-72
2021/11/19 09:21:30;;;;;;;1.02;0.90;;;11.50;99.90;;;;;;4324645;32;20111;-71
2021/11/19 09:23:59;;;;;;;1.17;1.00;;;11.50;99.90;;;;;;4332525;32;20056;-72
2021/11/19 09:26:36;;;;;;;8.30;1.00;;;11.50;99.90;;;;;;4332094;32;20083;-72
2021/11/19 09:29:06;;;;;;;3.72;1.42;;;11.50;99.90;;;;;;4334523;32;20103;-72
2021/11/19 09:31:31;;;;;;;5.35;0.90;;;11.50;99.90;;;;;;4333401;32;20162;-72
2021/11/19 09:33:57;;;;;;;1.77;0.75;;;11.50;99.90;;;;;;4335177;32;20421;-72
2021/11/19 09:36:22;;;;;;;0.47;0.47;;;11.50;99.90;;;;;;4333557;32;20087;-72
2021/11/19 09:38:48;;;;;;;1.05;0.98;;;11.50;99.90;;;;;;4329423;32;20110;-72
2021/11/19 09:41:38;;;;;;;2.55;1.35;;;11.50;99.90;;;;;;4330296;32;20882;-72
2021/11/19 09:44:34;;;;;;;0.93;0.87;;;11.50;99.90;;;;;;4333618;32;20087;-72
2021/11/19 09:47:24;;;;;;;0.77;0.77;;;11.50;99.90;;;;;;4336196;32;20150;-72
2021/11/19 09:50:14;;;;;;;1.37;1.27;;;11.50;99.90;;;;;;4328802;32;20539;-72
2021/11/19 09:53:19;;;;;;;5.30;2.08;;;11.50;99.90;;;;;;4332712;32;20150;-72
2021/11/19 09:56:11;;;;;;;1.12;0.88;;;11.60;99.90;;;;;;4325106;32;20099;-73
2021/11/19 09:58:46;;;;;;;0.62;0.62;;;11.60;99.90;;;;;;4336883;32;20395;-72
2021/11/19 10:01:40;;;;;;;0.55;0.55;;;11.60;99.90;;;;;;4343539;32;20509;-72
2021/11/19 10:04:28;;;;;;;0.75;0.75;;;11.60;99.90;;;;;;4338925;32;20067;-73
2021/11/19 10:07:04;;;;;;;3.45;1.40;;;11.60;99.90;;;;;;4346229;32;20203;-73
2021/11/19 10:09:54;;;;;;;4.15;1.05;;;11.60;99.90;;;;;;4346083;32;20095;-73
2021/11/19 10:12:35;;;;;;;0.50;0.50;;;11.70;99.90;;;;;;4343854;32;20677;-73
2021/11/19 10:15:22;;;;;;;1.27;0.80;;;11.70;99.90;;;;;;4341230;32;20452;-73
2021/11/19 10:17:59;;;;;;;2.08;1.10;;;11.70;99.90;;;;;;4341156;32;20134;-73
2021/11/19 10:20:37;;;;;;;0.52;0.52;;;11.70;99.90;;;;;;4343484;32;20598;-73
2021/11/19 10:23:26;;;;;;;2.12;0.80;;;11.70;99.90;;;;;;4337458;32;20174;-74
2021/11/19 10:26:04;;;;;;;0.95;0.73;;;11.80;99.90;;;;;;4317395;32;20134;-73
2021/11/19 10:28:51;;;;;;;1.92;1.20;;;11.80;99.90;;;;;;4336604;32;20186;-73
2021/11/19 10:31:20;;;;;;;0.68;0.68;;;11.80;99.90;;;;;;4335058;32;20108;-73
2021/11/19 10:33:57;;;;;;;1.17;1.02;;;11.80;99.90;;;;;;4328559;32;20094;-73
2021/11/19 10:36:31;;;;;;;2.00;0.93;;;11.80;99.90;;;;;;4336620;32;20088;-73
2021/11/19 10:39:18;;;;;;;0.65;0.65;;;11.90;99.90;;;;;;4336151;32;20186;-73
2021/11/19 10:42:23;;;;;;;1.17;1.08;;;11.90;99.90;;;;;;4339427;32;20405;-72
2021/11/19 10:45:04;;;;;;;0.47;0.47;;;11.90;99.90;;;;;;4329689;32;20739;-72
2021/11/19 10:47:41;;;;;;;0.93;0.93;;;11.80;99.90;;;;;;4340651;32;20100;-73
2021/11/19 10:50:36;;;;;;;0.52;0.52;;;11.90;99.90;;;;;;4340424;32;20147;-72
2021/11/19 10:53:41;;;;;;;1.00;0.73;;;11.90;99.90;;;;;;4329274;32;20079;-72
2021/11/19 10:56:19;;;;;;;0.80;0.80;;;11.80;99.90;;;;;;4333395;32;20063;-73
2021/11/19 10:58:48;;;;;;;0.98;0.70;;;11.90;99.90;;;;;;4342713;32;20103;-72
2021/11/19 11:01:23;;;;;;;0.90;0.90;;;11.90;99.90;;;;;;4342561;32;20104;-72
2021/11/19 11:04:09;;;;;;;3.20;1.40;;;11.90;99.90;;;;;;4346130;32;20103;-72
2021/11/19 11:06:45;;;;;;;1.00;0.80;;;11.90;99.90;;;;;;4340853;32;20078;-71
2021/11/19 11:09:19;;;;;;;29.30;1.10;;;11.90;99.90;;;;;;4338500;32;20119;-72
2021/11/19 11:12:07;;;;;;;1.52;1.20;;;11.90;99.90;;;;;;4340487;32;20454;-72
2021/11/19 11:14:33;;;;;;;0.85;0.80;;;12.00;99.90;;;;;;4335361;32;20087;-72
2021/11/19 11:17:17;;;;;;;1.25;1.15;;;12.00;99.90;;;;;;4336719;32;20067;-72
2021/11/19 11:19:47;;;;;;;1.25;0.85;;;12.00;99.90;;;;;;4330003;32;21125;-72
2021/11/19 11:22:18;;;;;;;14.60;0.82;;;12.00;99.90;;;;;;4342409;32;20332;-72
2021/11/19 11:24:51;;;;;;;2.37;0.98;;;12.10;99.90;;;;;;4337188;32;20112;-72
2021/11/19 11:27:42;;;;;;;0.85;0.85;;;12.10;99.90;;;;;;4331336;32;20103;-72
2021/11/19 11:30:11;;;;;;;;;;;12.10;99.90;;;;;;4329664;32;20178;-72
2021/11/19 11:32:58;;;;;;;1.12;0.60;;;12.10;99.90;;;;;;4337819;32;19969;-73
2021/11/19 11:35:38;;;;;;;0.90;0.85;;;12.10;99.90;;;;;;4328880;32;20075;-73
2021/11/19 11:38:25;;;;;;;0.57;0.57;;;12.10;99.90;;;;;;4329456;32;20079;-73
2021/11/19 11:41:01;;;;;;;0.68;0.68;;;12.20;99.90;;;;;;4336234;32;20099;-72
2021/11/19 11:43:30;;;;;;;0.50;0.50;;;12.20;99.90;;;;;;4340175;32;20605;-73
2021/11/19 11:46:13;;;;;;;3.87;0.82;;;12.20;99.90;;;;;;4339288;32;20087;-73
2021/11/19 11:48:43;;;;;;;1.67;1.40;;;12.10;99.90;;;;;;4340023;32;20067;-72
2021/11/19 11:51:20;;;;;;;0.77;0.77;;;12.10;99.90;;;;;;4339359;32;20091;-73
2021/11/19 11:54:15;;;;;;;0.75;0.75;;;12.20;99.90;;;;;;4339398;32;20848;-73
2021/11/19 11:56:45;;;;;;;3.00;0.88;;;12.20;99.90;;;;;;4313512;32;20225;-73
2021/11/19 11:59:20;;;;;;;1.50;0.70;;;12.20;99.90;;;;;;4322702;32;20131;-72
2021/11/19 12:01:51;;;;;;;0.80;0.65;;;12.20;99.90;;;;;;4331468;32;20107;-73
2021/11/19 12:04:49;;;;;;;13.88;2.53;;;12.20;99.90;;;;;;4338281;32;20079;-72
2021/11/19 12:07:35;;;;;;;0.50;0.50;;;12.20;99.90;;;;;;4326263;32;20611;-72
2021/11/19 12:10:29;;;;;;;1.42;0.60;;;12.20;99.90;;;;;;4324101;32;20072;-72
2021/11/19 12:13:21;;;;;;;0.62;0.60;;;12.20;99.90;;;;;;4331099;32;20109;-73
2021/11/19 12:15:58;;;;;;;0.80;0.75;;;12.20;99.90;;;;;;4339273;32;20087;-73
2021/11/19 12:18:34;;;;;;;1.15;0.80;;;12.20;99.90;;;;;;4343418;32;20066;-72
2021/11/19 12:21:08;;;;;;;2.25;1.23;;;12.20;99.90;;;;;;4335173;32;20895;-72
2021/11/19 12:24:01;;;;;;;1.67;1.08;;;12.30;99.90;;;;;;4336953;32;20075;-73
2021/11/19 12:26:52;;;;;;;1.77;1.08;;;12.30;99.90;;;;;;4326986;32;20688;-73
2021/11/19 12:29:37;;;;;;;;;;;12.30;99.90;;;;;;4330483;32;20082;-73
2021/11/19 12:32:30;;;;;;;0.62;0.62;;;12.30;99.90;;;;;;4323927;32;19955;-72
2021/11/19 12:35:14;;;;;;;2.17;0.73;;;12.30;99.90;;;;;;4332680;32;20099;-73
2021/11/19 12:37:47;;;;;;;0.60;0.60;;;12.30;99.90;;;;;;4331824;32;20075;-73
2021/11/19 12:40:21;;;;;;;7.85;2.30;;;12.30;99.90;;;;;;4335820;32;20063;-73
2021/11/19 12:42:55;;;;;;;0.52;0.50;;;12.30;99.90;;;;;;4332488;32;20503;-73
2021/11/19 12:45:27;;;;;;;9.38;0.85;;;12.30;99.90;;;;;;4330787;32;20087;-73
2021/11/19 12:48:22;;;;;;;1.15;1.05;;;12.40;99.90;;;;;;4335229;32;20100;-73
2021/11/19 12:50:57;;;;;;;0.65;0.57;;;12.30;99.90;;;;;;4323606;32;20841;-73
2021/11/19 12:53:49;;;;;;;1.75;0.70;;;12.40;99.90;;;;;;4334970;32;20820;-73
2021/11/19 12:56:21;;;;;;;0.50;0.50;;;12.40;99.90;;;;;;4335415;32;20075;-73
2021/11/19 12:58:51;;;;;;;0.45;0.45;;;12.40;99.90;;;;;;4343135;32;20087;-72
2021/11/19 13:01:32;;;;;;;2.53;1.67;;;12.40;99.90;;;;;;4341810;32;20086;-73
2021/11/19 13:04:04;;;;;;;;;;;12.40;99.90;;;;;;4328915;32;20108;-73
2021/11/19 13:06:37;;;;;;;0.60;0.60;;;12.50;99.90;;;;;;4343603;32;20074;-72
2021/11/19 13:09:23;;;;;;;0.43;0.43;;;12.40;99.90;;;;;;4340269;32;20071;-73